Terminal Aerodrome Forecast
Issued by NWS

Home | Current Version | Previous Version | Text Only | Print | Product List | Glossary On
Versions: 1 2 3 4 5 6 7 8 9 10 11 12 13
000
FTUS46 KMTR 020500
TAFOAK
TAF
KOAK 020536Z 0206/0312 VRB04KT P6SM SKC
     FM021800 28013KT P6SM SKC
     FM030300 26009KT P6SM SKC=

USA.gov is the U.S. government's official web portal to all federal, state and local government web resources and services.